CheckWX is a tool to help pilots better visualize weather data.  It is not intended as a substitute for an official pre-flight weather briefing.

13:07:20 UTC

KFOD TAF
Fort Dodge Regional Airport
Fort Dodge, Iowa, USA
KFOD 181120Z 1812/1912 23006KT 6SM BR BKN100 FM181400 25007KT P6SM BKN025 FM181500 34009KT P6SM BKN015 FM181800 34008KT P6SM SCT020 BKN130 FM182200 34008KT P6SM BKN130 FM190500 01005KT P6SM SKC

Aug-18@
12:00 UTC

Aug-18 @ 12:00 UTC

Aug-18@
14:00 UTC

Aug-18 @ 14:00 UTC

KFOD 181120Z 1812/1912 23006KT 6SM BR BKN100
Wind
  • 230° at 6 KTS
Conditions
Mist
Cloud Levels
  • Broken at 10,000' AGL

Aug-18@
14:00 UTC

Aug-18 @ 14:00 UTC

Aug-18@
15:00 UTC

Aug-18 @ 15:00 UTC

FM181400 25007KT P6SM BKN025

From

From Standard forecast or significant change

Wind
  • 250° at 7 KTS
Cloud Levels
  • Broken at 2,500' AGL

Aug-18@
15:00 UTC

Aug-18 @ 15:00 UTC

Aug-18@
18:00 UTC

Aug-18 @ 18:00 UTC

FM181500 34009KT P6SM BKN015

From

From Standard forecast or significant change

Wind
  • 340° at 9 KTS
Cloud Levels
  • Broken at 1,500' AGL

Aug-18@
18:00 UTC

Aug-18 @ 18:00 UTC

Aug-18@
22:00 UTC

Aug-18 @ 22:00 UTC

FM181800 34008KT P6SM SCT020 BKN130

From

From Standard forecast or significant change

Wind
  • 340° at 8 KTS
Cloud Levels
  • Scattered at 2,000' AGL
  • Broken at 13,000' AGL

Aug-18@
22:00 UTC

Aug-18 @ 22:00 UTC

Aug-19@
05:00 UTC

Aug-19 @ 05:00 UTC

FM182200 34008KT P6SM BKN130

From

From Standard forecast or significant change

Wind
  • 340° at 8 KTS
Cloud Levels
  • Broken at 13,000' AGL

Aug-19@
05:00 UTC

Aug-19 @ 05:00 UTC

Aug-19@
12:00 UTC

Aug-19 @ 12:00 UTC

FM190500 01005KT P6SM SKC

From

From Standard forecast or significant change

Wind
  • 010° at 5 KTS
Cloud Levels
  • Clear skies